sensor_id;sensor_type;location;lat;lon;timestamp;pressure;altitude;pressure_sealevel;temperature;humidity
24788;BME280;12883;52.662;5.196;2022-09-27T00:00:25;99587.31;;;10.79;100.00
24788;BME280;12883;52.662;5.196;2022-09-27T00:02:50;99585.47;;;10.80;100.00
24788;BME280;12883;52.662;5.196;2022-09-27T00:05:16;99584.66;;;10.79;100.00
24788;BME280;12883;52.662;5.196;2022-09-27T00:07:42;99586.41;;;10.74;100.00
24788;BME280;12883;52.662;5.196;2022-09-27T00:10:09;99578.78;;;10.66;100.00
24788;BME280;12883;52.662;5.196;2022-09-27T00:12:34;99612.34;;;10.72;100.00
24788;BME280;12883;52.662;5.196;2022-09-27T00:15:00;99595.13;;;10.63;100.00
24788;BME280;12883;52.662;5.196;2022-09-27T00:17:26;99605.88;;;10.68;100.00
24788;BME280;12883;52.662;5.196;2022-09-27T00:19:52;99619.72;;;10.70;100.00
24788;BME280;12883;52.662;5.196;2022-09-27T00:22:20;99609.25;;;10.75;100.00
24788;BME280;12883;52.662;5.196;2022-09-27T00:24:45;99541.25;;;10.39;100.00
24788;BME280;12883;52.662;5.196;2022-09-27T00:27:11;99603.47;;;10.78;100.00
24788;BME280;12883;52.662;5.196;2022-09-27T00:29:36;99605.66;;;10.81;100.00
24788;BME280;12883;52.662;5.196;2022-09-27T00:32:02;99620.75;;;10.80;100.00
24788;BME280;12883;52.662;5.196;2022-09-27T00:34:27;99611.41;;;10.78;100.00
24788;BME280;12883;52.662;5.196;2022-09-27T00:36:52;99619.84;;;10.75;100.00
24788;BME280;12883;52.662;5.196;2022-09-27T00:39:19;99621.69;;;10.74;100.00
24788;BME280;12883;52.662;5.196;2022-09-27T00:41:44;99625.72;;;10.77;100.00
24788;BME280;12883;52.662;5.196;2022-09-27T00:54:52;99597.00;;;10.62;100.00
24788;BME280;12883;52.662;5.196;2022-09-27T00:57:21;99605.19;;;10.61;100.00
24788;BME280;12883;52.662;5.196;2022-09-27T00:59:53;99601.25;;;10.52;100.00
24788;BME280;12883;52.662;5.196;2022-09-27T01:02:22;99602.03;;;10.52;100.00
24788;BME280;12883;52.662;5.196;2022-09-27T01:04:48;99607.59;;;10.51;100.00
24788;BME280;12883;52.662;5.196;2022-09-27T01:07:13;99607.81;;;10.49;100.00
24788;BME280;12883;52.662;5.196;2022-09-27T01:09:39;99607.59;;;10.51;100.00
24788;BME280;12883;52.662;5.196;2022-09-27T01:31:49;99611.19;;;10.15;100.00
24788;BME280;12883;52.662;5.196;2022-09-27T01:34:26;99613.63;;;10.17;100.00
24788;BME280;12883;52.662;5.196;2022-09-27T01:37:31;99611.75;;;10.17;100.00
24788;BME280;12883;52.662;5.196;2022-09-27T01:40:16;99609.94;;;10.18;100.00
24788;BME280;12883;52.662;5.196;2022-09-27T01:42:48;99602.88;;;10.12;100.00
24788;BME280;12883;52.662;5.196;2022-09-27T01:45:38;99606.69;;;10.16;100.00
24788;BME280;12883;52.662;5.196;2022-09-27T01:48:29;99602.41;;;10.15;100.00
24788;BME280;12883;52.662;5.196;2022-09-27T01:50:58;99601.84;;;10.13;100.00
24788;BME280;12883;52.662;5.196;2022-09-27T01:53:31;99599.88;;;10.08;100.00
24788;BME280;12883;52.662;5.196;2022-09-27T01:56:02;99603.22;;;10.04;100.00
24788;BME280;12883;52.662;5.196;2022-09-27T01:58:37;99598.69;;;10.04;100.00
24788;BME280;12883;52.662;5.196;2022-09-27T02:01:06;99604.81;;;10.05;100.00
24788;BME280;12883;52.662;5.196;2022-09-27T02:03:40;99594.72;;;9.95;100.00
24788;BME280;12883;52.662;5.196;2022-09-27T02:06:15;99607.28;;;10.00;100.00
24788;BME280;12883;52.662;5.196;2022-09-27T02:08:56;99603.03;;;9.99;100.00
24788;BME280;12883;52.662;5.196;2022-09-27T02:11:23;99602.47;;;9.97;100.00
24788;BME280;12883;52.662;5.196;2022-09-27T02:16:46;99609.38;;;9.98;100.00
24788;BME280;12883;52.662;5.196;2022-09-27T02:21:58;99604.38;;;9.90;100.00
24788;BME280;12883;52.662;5.196;2022-09-27T02:24:36;99603.78;;;9.88;100.00
24788;BME280;12883;52.662;5.196;2022-09-27T02:27:12;99610.38;;;9.85;100.00
24788;BME280;12883;52.662;5.196;2022-09-27T02:29:48;99593.06;;;9.83;100.00
24788;BME280;12883;52.662;5.196;2022-09-27T02:32:15;99600.66;;;9.79;100.00
24788;BME280;12883;52.662;5.196;2022-09-27T02:34:42;99599.69;;;9.74;100.00
24788;BME280;12883;52.662;5.196;2022-09-27T02:37:09;99591.16;;;9.72;100.00
24788;BME280;12883;52.662;5.196;2022-09-27T02:39:35;99594.38;;;9.74;100.00
24788;BME280;12883;52.662;5.196;2022-09-27T02:42:01;99593.03;;;9.71;100.00
24788;BME280;12883;52.662;5.196;2022-09-27T02:44:27;99592.19;;;9.71;100.00
24788;BME280;12883;52.662;5.196;2022-09-27T02:49:43;99600.25;;;9.64;100.00
24788;BME280;12883;52.662;5.196;2022-09-27T02:52:20;99608.41;;;9.63;100.00
24788;BME280;12883;52.662;5.196;2022-09-27T02:54:58;99596.78;;;9.64;100.00
24788;BME280;12883;52.662;5.196;2022-09-27T02:57:47;99607.81;;;9.61;100.00
24788;BME280;12883;52.662;5.196;2022-09-27T03:00:21;99597.22;;;9.61;100.00
24788;BME280;12883;52.662;5.196;2022-09-27T03:05:28;99601.69;;;9.60;100.00
24788;BME280;12883;52.662;5.196;2022-09-27T03:07:56;99611.03;;;9.63;100.00
24788;BME280;12883;52.662;5.196;2022-09-27T03:10:27;99611.03;;;9.63;100.00
24788;BME280;12883;52.662;5.196;2022-09-27T03:12:53;99604.56;;;9.59;100.00
24788;BME280;12883;52.662;5.196;2022-09-27T03:15:19;99604.81;;;9.57;100.00
24788;BME280;12883;52.662;5.196;2022-09-27T03:17:45;99597.06;;;9.56;100.00
24788;BME280;12883;52.662;5.196;2022-09-27T03:20:10;99614.63;;;9.68;100.00
24788;BME280;12883;52.662;5.196;2022-09-27T03:22:36;99605.75;;;9.63;100.00
24788;BME280;12883;52.662;5.196;2022-09-27T03:25:03;99644.66;;;9.80;100.00
24788;BME280;12883;52.662;5.196;2022-09-27T03:27:29;99635.00;;;9.86;100.00
24788;BME280;12883;52.662;5.196;2022-09-27T03:29:54;99616.22;;;9.87;100.00
24788;BME280;12883;52.662;5.196;2022-09-27T03:32:20;99613.13;;;9.90;100.00
24788;BME280;12883;52.662;5.196;2022-09-27T03:34:45;99605.63;;;9.87;100.00
24788;BME280;12883;52.662;5.196;2022-09-27T03:37:10;99612.19;;;9.85;100.00
24788;BME280;12883;52.662;5.196;2022-09-27T03:39:36;99608.81;;;9.78;100.00
24788;BME280;12883;52.662;5.196;2022-09-27T03:42:01;99603.50;;;9.78;100.00
24788;BME280;12883;52.662;5.196;2022-09-27T03:44:26;99609.91;;;9.70;100.00
24788;BME280;12883;52.662;5.196;2022-09-27T03:46:52;99604.03;;;9.68;100.00
24788;BME280;12883;52.662;5.196;2022-09-27T03:49:17;99604.13;;;9.62;100.00
24788;BME280;12883;52.662;5.196;2022-09-27T03:51:43;99598.31;;;9.53;100.00
24788;BME280;12883;52.662;5.196;2022-09-27T03:54:09;99601.34;;;9.57;100.00
24788;BME280;12883;52.662;5.196;2022-09-27T03:56:34;99600.88;;;9.60;100.00
24788;BME280;12883;52.662;5.196;2022-09-27T03:59:00;99599.00;;;9.49;100.00
24788;BME280;12883;52.662;5.196;2022-09-27T04:01:25;99603.03;;;9.52;100.00
24788;BME280;12883;52.662;5.196;2022-09-27T04:03:52;99606.28;;;9.53;100.00
24788;BME280;12883;52.662;5.196;2022-09-27T04:06:17;99608.56;;;9.50;100.00
24788;BME280;12883;52.662;5.196;2022-09-27T04:08:43;99606.13;;;9.48;100.00
24788;BME280;12883;52.662;5.196;2022-09-27T04:11:08;99610.63;;;9.48;100.00
24788;BME280;12883;52.662;5.196;2022-09-27T04:13:34;99609.59;;;9.49;100.00
24788;BME280;12883;52.662;5.196;2022-09-27T04:16:00;99602.44;;;9.49;100.00
24788;BME280;12883;52.662;5.196;2022-09-27T04:18:27;99598.63;;;9.46;100.00
24788;BME280;12883;52.662;5.196;2022-09-27T04:20:52;99590.38;;;9.36;100.00
24788;BME280;12883;52.662;5.196;2022-09-27T04:23:17;99605.75;;;9.45;100.00
24788;BME280;12883;52.662;5.196;2022-09-27T04:25:44;99610.00;;;9.46;100.00
24788;BME280;12883;52.662;5.196;2022-09-27T04:28:10;99612.38;;;9.54;100.00
24788;BME280;12883;52.662;5.196;2022-09-27T04:30:35;99618.84;;;9.58;100.00
24788;BME280;12883;52.662;5.196;2022-09-27T04:33:01;99598.53;;;9.52;100.00
24788;BME280;12883;52.662;5.196;2022-09-27T04:35:26;99612.19;;;9.67;100.00
24788;BME280;12883;52.662;5.196;2022-09-27T04:38:10;99601.97;;;9.70;100.00
24788;BME280;12883;52.662;5.196;2022-09-27T04:40:35;99601.19;;;9.70;100.00
24788;BME280;12883;52.662;5.196;2022-09-27T04:43:01;99599.94;;;9.72;100.00
24788;BME280;12883;52.662;5.196;2022-09-27T04:45:28;99589.03;;;9.62;100.00
24788;BME280;12883;52.662;5.196;2022-09-27T04:47:53;99565.16;;;9.51;100.00
24788;BME280;12883;52.662;5.196;2022-09-27T04:50:18;99597.34;;;9.66;100.00
24788;BME280;12883;52.662;5.196;2022-09-27T04:52:49;99597.13;;;9.67;100.00
24788;BME280;12883;52.662;5.196;2022-09-27T04:55:16;99596.31;;;9.67;100.00
24788;BME280;12883;52.662;5.196;2022-09-27T04:57:42;99587.53;;;9.55;100.00
24788;BME280;12883;52.662;5.196;2022-09-27T05:00:08;99613.03;;;9.67;100.00
24788;BME280;12883;52.662;5.196;2022-09-27T05:02:33;99618.53;;;9.66;100.00
24788;BME280;12883;52.662;5.196;2022-09-27T05:04:58;99619.00;;;9.63;100.00
24788;BME280;12883;52.662;5.196;2022-09-27T05:07:25;99607.81;;;9.61;100.00
24788;BME280;12883;52.662;5.196;2022-09-27T05:09:51;99635.88;;;9.80;100.00
24788;BME280;12883;52.662;5.196;2022-09-27T05:12:17;99625.91;;;9.82;100.00
24788;BME280;12883;52.662;5.196;2022-09-27T05:14:42;99627.63;;;9.88;100.00
24788;BME280;12883;52.662;5.196;2022-09-27T05:17:08;99624.97;;;9.88;100.00
24788;BME280;12883;52.662;5.196;2022-09-27T05:19:34;99637.78;;;9.91;100.00
24788;BME280;12883;52.662;5.196;2022-09-27T05:21:59;99639.97;;;9.94;100.00
24788;BME280;12883;52.662;5.196;2022-09-27T05:24:25;99605.59;;;9.76;100.00
24788;BME280;12883;52.662;5.196;2022-09-27T05:26:52;99617.59;;;9.78;100.00
24788;BME280;12883;52.662;5.196;2022-09-27T05:29:18;99633.16;;;9.86;100.00
24788;BME280;12883;52.662;5.196;2022-09-27T05:31:43;99641.59;;;9.95;100.00
24788;BME280;12883;52.662;5.196;2022-09-27T05:34:08;99636.66;;;9.98;100.00
24788;BME280;12883;52.662;5.196;2022-09-27T05:36:36;99651.75;;;9.98;100.00
24788;BME280;12883;52.662;5.196;2022-09-27T05:39:02;99632.81;;;9.83;100.00
24788;BME280;12883;52.662;5.196;2022-09-27T05:41:27;99650.16;;;9.97;100.00
24788;BME280;12883;52.662;5.196;2022-09-27T05:43:53;99653.13;;;9.89;100.00
24788;BME280;12883;52.662;5.196;2022-09-27T05:46:18;99662.44;;;9.91;100.00
24788;BME280;12883;52.662;5.196;2022-09-27T05:48:43;99666.84;;;9.97;100.00
24788;BME280;12883;52.662;5.196;2022-09-27T05:51:09;99670.50;;;10.03;100.00
24788;BME280;12883;52.662;5.196;2022-09-27T05:53:34;99650.22;;;9.90;100.00
24788;BME280;12883;52.662;5.196;2022-09-27T05:56:01;99651.69;;;10.04;100.00
24788;BME280;12883;52.662;5.196;2022-09-27T05:58:28;99652.91;;;10.02;100.00
24788;BME280;12883;52.662;5.196;2022-09-27T06:00:53;99658.84;;;10.04;100.00
24788;BME280;12883;52.662;5.196;2022-09-27T06:03:18;99650.28;;;10.02;100.00
24788;BME280;12883;52.662;5.196;2022-09-27T06:05:44;99647.50;;;9.97;100.00
24788;BME280;12883;52.662;5.196;2022-09-27T06:08:11;99637.56;;;9.92;100.00
24788;BME280;12883;52.662;5.196;2022-09-27T06:10:38;99649.28;;;10.03;100.00
24788;BME280;12883;52.662;5.196;2022-09-27T06:13:06;99642.97;;;10.04;100.00
24788;BME280;12883;52.662;5.196;2022-09-27T06:15:33;99638.69;;;10.03;100.00
24788;BME280;12883;52.662;5.196;2022-09-27T06:18:08;99578.00;;;9.65;100.00
24788;BME280;12883;52.662;5.196;2022-09-27T06:20:34;99637.66;;;10.04;100.00
24788;BME280;12883;52.662;5.196;2022-09-27T06:23:08;99630.41;;;10.11;100.00
24788;BME280;12883;52.662;5.196;2022-09-27T06:25:34;99623.03;;;10.13;100.00
24788;BME280;12883;52.662;5.196;2022-09-27T06:28:01;99625.91;;;10.11;100.00
24788;BME280;12883;52.662;5.196;2022-09-27T06:30:28;99627.41;;;10.07;100.00
24788;BME280;12883;52.662;5.196;2022-09-27T06:32:58;99627.78;;;10.11;100.00
24788;BME280;12883;52.662;5.196;2022-09-27T06:35:25;99616.44;;;10.04;100.00
24788;BME280;12883;52.662;5.196;2022-09-27T06:37:51;99657.28;;;10.14;100.00
24788;BME280;12883;52.662;5.196;2022-09-27T06:40:16;99650.28;;;10.20;100.00
24788;BME280;12883;52.662;5.196;2022-09-27T06:42:42;99640.34;;;10.15;100.00
24788;BME280;12883;52.662;5.196;2022-09-27T06:45:08;99642.78;;;10.17;100.00
24788;BME280;12883;52.662;5.196;2022-09-27T06:47:37;99654.38;;;10.16;100.00
24788;BME280;12883;52.662;5.196;2022-09-27T06:50:03;99651.53;;;10.17;100.00
24788;BME280;12883;52.662;5.196;2022-09-27T06:52:30;99656.03;;;10.17;100.00
24788;BME280;12883;52.662;5.196;2022-09-27T06:54:56;99655.44;;;10.15;100.00
24788;BME280;12883;52.662;5.196;2022-09-27T06:57:21;99662.13;;;10.17;100.00
24788;BME280;12883;52.662;5.196;2022-09-27T07:00:19;99677.66;;;10.14;100.00
24788;BME280;12883;52.662;5.196;2022-09-27T07:02:54;99687.47;;;10.13;100.00
24788;BME280;12883;52.662;5.196;2022-09-27T07:05:26;99683.88;;;10.08;100.00
24788;BME280;12883;52.662;5.196;2022-09-27T07:07:52;99681.13;;;9.96;100.00
24788;BME280;12883;52.662;5.196;2022-09-27T07:10:20;99685.91;;;9.88;100.00
24788;BME280;12883;52.662;5.196;2022-09-27T07:12:45;99682.00;;;9.90;100.00
24788;BME280;12883;52.662;5.196;2022-09-27T07:15:13;99685.91;;;9.88;100.00
24788;BME280;12883;52.662;5.196;2022-09-27T07:17:38;99697.53;;;9.87;100.00
24788;BME280;12883;52.662;5.196;2022-09-27T07:20:04;99697.19;;;9.83;100.00
24788;BME280;12883;52.662;5.196;2022-09-27T07:22:30;99685.78;;;9.83;100.00
24788;BME280;12883;52.662;5.196;2022-09-27T07:24:55;99699.41;;;9.86;100.00
24788;BME280;12883;52.662;5.196;2022-09-27T07:27:20;99696.50;;;9.88;100.00
24788;BME280;12883;52.662;5.196;2022-09-27T07:29:46;99691.47;;;9.86;100.00
24788;BME280;12883;52.662;5.196;2022-09-27T07:32:11;99689.28;;;9.95;100.00
24788;BME280;12883;52.662;5.196;2022-09-27T07:34:37;99663.56;;;9.84;100.00
24788;BME280;12883;52.662;5.196;2022-09-27T07:37:02;99685.75;;;10.01;100.00
24788;BME280;12883;52.662;5.196;2022-09-27T07:39:30;99670.63;;;9.90;100.00
24788;BME280;12883;52.662;5.196;2022-09-27T07:41:55;99668.56;;;9.92;100.00
24788;BME280;12883;52.662;5.196;2022-09-27T07:44:21;99669.75;;;9.96;100.00
24788;BME280;12883;52.662;5.196;2022-09-27T07:46:46;99682.59;;;10.10;100.00
24788;BME280;12883;52.662;5.196;2022-09-27T07:49:11;99663.69;;;10.07;100.00
24788;BME280;12883;52.662;5.196;2022-09-27T07:51:37;99679.66;;;10.18;100.00
24788;BME280;12883;52.662;5.196;2022-09-27T07:54:02;99670.66;;;10.19;100.00
24788;BME280;12883;52.662;5.196;2022-09-27T07:56:27;99671.97;;;10.28;100.00
24788;BME280;12883;52.662;5.196;2022-09-27T07:58:53;99665.63;;;10.29;100.00
24788;BME280;12883;52.662;5.196;2022-09-27T08:01:19;99654.94;;;10.36;100.00
24788;BME280;12883;52.662;5.196;2022-09-27T08:03:44;99662.59;;;10.44;100.00
24788;BME280;12883;52.662;5.196;2022-09-27T08:06:10;99666.53;;;10.53;100.00
24788;BME280;12883;52.662;5.196;2022-09-27T08:08:35;99653.47;;;10.51;100.00
24788;BME280;12883;52.662;5.196;2022-09-27T08:11:09;99677.50;;;10.56;100.00
24788;BME280;12883;52.662;5.196;2022-09-27T08:13:37;99678.19;;;10.63;100.00
24788;BME280;12883;52.662;5.196;2022-09-27T08:16:04;99698.88;;;10.73;100.00
24788;BME280;12883;52.662;5.196;2022-09-27T08:18:29;99700.34;;;10.69;100.00
24788;BME280;12883;52.662;5.196;2022-09-27T08:20:56;99714.69;;;10.79;100.00
24788;BME280;12883;52.662;5.196;2022-09-27T08:23:22;99715.03;;;10.83;100.00
24788;BME280;12883;52.662;5.196;2022-09-27T08:25:52;99706.22;;;10.71;100.00
24788;BME280;12883;52.662;5.196;2022-09-27T08:28:17;99716.41;;;10.74;100.00
24788;BME280;12883;52.662;5.196;2022-09-27T08:30:43;99700.78;;;10.54;100.00
24788;BME280;12883;52.662;5.196;2022-09-27T08:33:08;99723.44;;;10.68;100.00
24788;BME280;12883;52.662;5.196;2022-09-27T08:35:34;99703.69;;;10.64;100.00
24788;BME280;12883;52.662;5.196;2022-09-27T08:38:00;99722.28;;;10.76;100.00
24788;BME280;12883;52.662;5.196;2022-09-27T08:40:50;99731.28;;;10.75;100.00
24788;BME280;12883;52.662;5.196;2022-09-27T08:43:51;99726.91;;;10.80;100.00
24788;BME280;12883;52.662;5.196;2022-09-27T08:49:23;99728.88;;;10.85;100.00
24788;BME280;12883;52.662;5.196;2022-09-27T08:51:52;99744.38;;;10.88;100.00
24788;BME280;12883;52.662;5.196;2022-09-27T08:54:22;99747.00;;;10.88;100.00
24788;BME280;12883;52.662;5.196;2022-09-27T08:56:49;99746.53;;;10.91;100.00
24788;BME280;12883;52.662;5.196;2022-09-27T08:59:17;99747.16;;;10.93;100.00
24788;BME280;12883;52.662;5.196;2022-09-27T09:01:48;99736.75;;;10.91;100.00
24788;BME280;12883;52.662;5.196;2022-09-27T09:04:24;99737.53;;;10.92;100.00
24788;BME280;12883;52.662;5.196;2022-09-27T09:12:50;99724.88;;;10.94;100.00
24788;BME280;12883;52.662;5.196;2022-09-27T09:15:37;99716.78;;;10.89;100.00
24788;BME280;12883;52.662;5.196;2022-09-27T09:18:32;99725.34;;;11.02;100.00
24788;BME280;12883;52.662;5.196;2022-09-27T09:32:05;99758.34;;;10.95;100.00
24788;BME280;12883;52.662;5.196;2022-09-27T09:34:43;99757.09;;;10.97;100.00
24788;BME280;12883;52.662;5.196;2022-09-27T09:37:25;99745.16;;;10.88;100.00
24788;BME280;12883;52.662;5.196;2022-09-27T09:39:58;99744.34;;;10.76;100.00
24788;BME280;12883;52.662;5.196;2022-09-27T09:42:33;99741.53;;;10.71;100.00
24788;BME280;12883;52.662;5.196;2022-09-27T09:45:06;99739.09;;;10.70;100.00
24788;BME280;12883;52.662;5.196;2022-09-27T09:48:03;99735.13;;;10.79;100.00
24788;BME280;12883;52.662;5.196;2022-09-27T09:50:42;99742.63;;;10.82;100.00
24788;BME280;12883;52.662;5.196;2022-09-27T09:53:14;99742.56;;;11.00;100.00
24788;BME280;12883;52.662;5.196;2022-09-27T09:55:42;99736.31;;;11.06;100.00
24788;BME280;12883;52.662;5.196;2022-09-27T09:58:27;99737.59;;;11.15;100.00
24788;BME280;12883;52.662;5.196;2022-09-27T10:00:59;99739.44;;;11.14;100.00
24788;BME280;12883;52.662;5.196;2022-09-27T10:03:25;99749.06;;;11.27;100.00
24788;BME280;12883;52.662;5.196;2022-09-27T10:05:50;99754.47;;;11.32;100.00
24788;BME280;12883;52.662;5.196;2022-09-27T10:08:18;99746.06;;;11.35;100.00
24788;BME280;12883;52.662;5.196;2022-09-27T10:10:45;99738.41;;;11.15;100.00
24788;BME280;12883;52.662;5.196;2022-09-27T10:13:16;99751.81;;;11.32;100.00
24788;BME280;12883;52.662;5.196;2022-09-27T10:15:46;99735.44;;;11.35;100.00
24788;BME280;12883;52.662;5.196;2022-09-27T10:18:17;99735.66;;;11.45;100.00
24788;BME280;12883;52.662;5.196;2022-09-27T10:20:50;99736.03;;;11.60;100.00
24788;BME280;12883;52.662;5.196;2022-09-27T10:23:19;99739.63;;;11.65;100.00
24788;BME280;12883;52.662;5.196;2022-09-27T10:25:46;99738.44;;;11.73;100.00
24788;BME280;12883;52.662;5.196;2022-09-27T10:28:48;99736.34;;;11.75;100.00
24788;BME280;12883;52.662;5.196;2022-09-27T10:31:18;99731.06;;;11.86;100.00
24788;BME280;12883;52.662;5.196;2022-09-27T10:33:53;99733.22;;;11.89;100.00
24788;BME280;12883;52.662;5.196;2022-09-27T10:36:23;99723.66;;;11.88;100.00
24788;BME280;12883;52.662;5.196;2022-09-27T10:38:54;99735.91;;;11.78;100.00
24788;BME280;12883;52.662;5.196;2022-09-27T10:41:24;99733.03;;;11.79;100.00
24788;BME280;12883;52.662;5.196;2022-09-27T10:43:50;99719.72;;;11.91;100.00
24788;BME280;12883;52.662;5.196;2022-09-27T10:46:32;99726.63;;;11.92;100.00
24788;BME280;12883;52.662;5.196;2022-09-27T10:49:18;99703.53;;;11.81;100.00
24788;BME280;12883;52.662;5.196;2022-09-27T10:51:49;99723.50;;;11.95;100.00
24788;BME280;12883;52.662;5.196;2022-09-27T10:54:25;99724.09;;;11.97;100.00
24788;BME280;12883;52.662;5.196;2022-09-27T10:59:41;99725.91;;;12.08;100.00
24788;BME280;12883;52.662;5.196;2022-09-27T11:02:19;99719.78;;;12.07;100.00
24788;BME280;12883;52.662;5.196;2022-09-27T11:05:46;99718.53;;;12.10;100.00
24788;BME280;12883;52.662;5.196;2022-09-27T11:07:49;99690.09;;;11.99;100.00
24788;BME280;12883;52.662;5.196;2022-09-27T11:10:21;99713.16;;;12.21;100.00
24788;BME280;12883;52.662;5.196;2022-09-27T11:13:13;99722.41;;;12.19;100.00
24788;BME280;12883;52.662;5.196;2022-09-27T11:24:19;99743.75;;;11.96;100.00
24788;BME280;12883;52.662;5.196;2022-09-27T11:30:10;99746.44;;;11.61;100.00
24788;BME280;12883;52.662;5.196;2022-09-27T11:32:46;99751.03;;;11.66;100.00
24788;BME280;12883;52.662;5.196;2022-09-27T11:35:29;99741.34;;;11.60;100.00
24788;BME280;12883;52.662;5.196;2022-09-27T11:46:09;99716.84;;;11.69;100.00
24788;BME280;12883;52.662;5.196;2022-09-27T11:48:42;99723.31;;;11.73;100.00
24788;BME280;12883;52.662;5.196;2022-09-27T11:56:55;99718.13;;;11.67;100.00
24788;BME280;12883;52.662;5.196;2022-09-27T12:07:58;99723.06;;;11.86;100.00
24788;BME280;12883;52.662;5.196;2022-09-27T12:10:29;99722.13;;;11.81;100.00
24788;BME280;12883;52.662;5.196;2022-09-27T12:12:55;99723.88;;;11.87;100.00
24788;BME280;12883;52.662;5.196;2022-09-27T12:15:25;99726.06;;;11.90;100.00
24788;BME280;12883;52.662;5.196;2022-09-27T12:18:25;99738.88;;;11.93;100.00
24788;BME280;12883;52.662;5.196;2022-09-27T12:20:52;99731.94;;;12.03;100.00
24788;BME280;12883;52.662;5.196;2022-09-27T12:23:40;99730.19;;;11.97;100.00
24788;BME280;12883;52.662;5.196;2022-09-27T12:26:44;99729.59;;;12.07;100.00
24788;BME280;12883;52.662;5.196;2022-09-27T12:29:16;99719.94;;;11.89;100.00
24788;BME280;12883;52.662;5.196;2022-09-27T12:31:50;99730.22;;;11.86;100.00
24788;BME280;12883;52.662;5.196;2022-09-27T12:34:22;99724.56;;;11.82;100.00
24788;BME280;12883;52.662;5.196;2022-09-27T12:37:02;99705.97;;;11.82;100.00
24788;BME280;12883;52.662;5.196;2022-09-27T12:39:42;99708.47;;;11.89;100.00
24788;BME280;12883;52.662;5.196;2022-09-27T12:42:19;99682.41;;;11.74;100.00
24788;BME280;12883;52.662;5.196;2022-09-27T12:44:45;99721.69;;;11.84;100.00
24788;BME280;12883;52.662;5.196;2022-09-27T12:47:27;99714.75;;;11.83;100.00
24788;BME280;12883;52.662;5.196;2022-09-27T12:52:41;99727.16;;;12.17;100.00
24788;BME280;12883;52.662;5.196;2022-09-27T12:58:27;99738.47;;;12.24;100.00
24788;BME280;12883;52.662;5.196;2022-09-27T13:01:13;99723.34;;;12.13;100.00
24788;BME280;12883;52.662;5.196;2022-09-27T13:12:36;99744.59;;;12.24;100.00
24788;BME280;12883;52.662;5.196;2022-09-27T13:15:24;99739.59;;;12.28;100.00
24788;BME280;12883;52.662;5.196;2022-09-27T13:17:53;99739.16;;;12.19;100.00
24788;BME280;12883;52.662;5.196;2022-09-27T13:31:00;99730.34;;;11.22;100.00
24788;BME280;12883;52.662;5.196;2022-09-27T13:36:29;99718.75;;;11.05;100.00
24788;BME280;12883;52.662;5.196;2022-09-27T13:46:54;99746.53;;;10.91;100.00
24788;BME280;12883;52.662;5.196;2022-09-27T13:49:26;99748.28;;;10.85;100.00
24788;BME280;12883;52.662;5.196;2022-09-27T13:52:01;99730.19;;;10.53;100.00
24788;BME280;12883;52.662;5.196;2022-09-27T13:56:59;99733.00;;;10.40;100.00
24788;BME280;12883;52.662;5.196;2022-09-27T13:59:50;99739.78;;;10.36;100.00
24788;BME280;12883;52.662;5.196;2022-09-27T14:02:24;99730.13;;;10.41;100.00
24788;BME280;12883;52.662;5.196;2022-09-27T14:04:51;99710.91;;;10.46;100.00
24788;BME280;12883;52.662;5.196;2022-09-27T14:07:23;99719.75;;;10.40;100.00
24788;BME280;12883;52.662;5.196;2022-09-27T14:09:56;99715.13;;;10.35;100.00
24788;BME280;12883;52.662;5.196;2022-09-27T14:12:31;99715.63;;;10.44;100.00
24788;BME280;12883;52.662;5.196;2022-09-27T14:14:58;99714.94;;;10.48;100.00
24788;BME280;12883;52.662;5.196;2022-09-27T14:17:24;99721.53;;;10.57;100.00
24788;BME280;12883;52.662;5.196;2022-09-27T14:19:50;99708.09;;;10.70;100.00
24788;BME280;12883;52.662;5.196;2022-09-27T14:22:20;99705.13;;;10.90;100.00
24788;BME280;12883;52.662;5.196;2022-09-27T14:24:55;99710.56;;;10.95;100.00
24788;BME280;12883;52.662;5.196;2022-09-27T14:27:25;99704.34;;;10.89;100.00
24788;BME280;12883;52.662;5.196;2022-09-27T14:29:53;99703.19;;;10.97;100.00
24788;BME280;12883;52.662;5.196;2022-09-27T14:32:23;99705.13;;;10.90;100.00
24788;BME280;12883;52.662;5.196;2022-09-27T14:35:12;99705.47;;;10.93;100.00
24788;BME280;12883;52.662;5.196;2022-09-27T14:37:59;99693.94;;;10.88;100.00
24788;BME280;12883;52.662;5.196;2022-09-27T14:40:26;99703.66;;;10.94;100.00
24788;BME280;12883;52.662;5.196;2022-09-27T14:42:58;99709.53;;;10.96;100.00
24788;BME280;12883;52.662;5.196;2022-09-27T14:45:35;99701.09;;;10.99;100.00
24788;BME280;12883;52.662;5.196;2022-09-27T14:48:17;99708.63;;;11.02;100.00
24788;BME280;12883;52.662;5.196;2022-09-27T14:50:53;99703.75;;;10.99;100.00
24788;BME280;12883;52.662;5.196;2022-09-27T14:53:23;99699.25;;;10.99;100.00
24788;BME280;12883;52.662;5.196;2022-09-27T14:55:50;99701.22;;;11.04;100.00
24788;BME280;12883;52.662;5.196;2022-09-27T14:58:19;99674.44;;;10.94;100.00
24788;BME280;12883;52.662;5.196;2022-09-27T15:00:46;99693.81;;;11.06;100.00
24788;BME280;12883;52.662;5.196;2022-09-27T15:03:26;99701.81;;;11.17;100.00
24788;BME280;12883;52.662;5.196;2022-09-27T15:05:54;99701.69;;;11.24;100.00
24788;BME280;12883;52.662;5.196;2022-09-27T15:08:22;99702.97;;;11.21;100.00
24788;BME280;12883;52.662;5.196;2022-09-27T15:10:48;99696.63;;;11.22;100.00
24788;BME280;12883;52.662;5.196;2022-09-27T15:13:15;99686.81;;;11.23;100.00
24788;BME280;12883;52.662;5.196;2022-09-27T15:15:42;99687.03;;;11.33;100.00
24788;BME280;12883;52.662;5.196;2022-09-27T15:18:42;99697.56;;;11.28;100.00
24788;BME280;12883;52.662;5.196;2022-09-27T15:21:34;99695.94;;;11.27;100.00
24788;BME280;12883;52.662;5.196;2022-09-27T15:23:57;99676.66;;;11.20;100.00
24788;BME280;12883;52.662;5.196;2022-09-27T15:26:44;99701.13;;;11.33;100.00